NORTHEAST SUFFOLK  -  Special Weather Statement Special Weather Statement        NORTHERN NASSAU  -  Special Weather Statement Special Weather Statement        NORTHWEST SUFFOLK  -  Special Weather Statement Special Weather Statement        SOUTHEAST SUFFOLK  -  Special Weather Statement Special Weather Statement        SOUTHERN NASSAU  -  Special Weather Statement Special Weather Statement        SOUTHWEST SUFFOLK  -  Special Weather Statement Special Weather Statement      

Active alerts

Northern Nassau
  Details for Northern Nassau Special Weather Statement
Southern Nassau
  Details for Southern Nassau Special Weather Statement
Northwest Suffolk
  Details for Northwest Suffolk Special Weather Statement
Southwest Suffolk
  Details for Southwest Suffolk Special Weather Statement
Northeast Suffolk
  Details for Northeast Suffolk Special Weather Statement
Southeast Suffolk
  Details for Southeast Suffolk Special Weather Statement


WXM80 ListenWXM80 Stop

You find our weather info also at:

UK Metoffice

WeatherCloud

Weather Underground

Northeastern Weather Network

AWEKAS

Citizen Weather Observer Program (CWOP)

HAMweather, WeatherForYou, PWS Weather


Weather Underground History page Text

Daily Summary for August 6, 2017 Units:  English    Metric   Both
« Previous Day
Next Day »
Daily Weekly Monthly Yearly Custom
  High: Low: Average:
Temperature: 78.3 °F 65.1 °F 71 °F
Dew Point: 61.1 °F 56.2 °F 58.1 °F
Humidity: 76 % 49 % 65 %
Wind Speed: 7.9 mph 0.0 mph 2.4 mph
Wind Gust: 15.0 mph - -
Wind:- - West
Pressure: 30.07 in 29.91 in -
Precipitation: 0.01 in    
Historical Graphs
 
 
Tabular Data for August 6, 2017
Time Temperature Dew Point Pressure Wind Wind Speed Wind Gust Humidity Rainfall Rate (Hourly)
00:00 70.1 °F 58.2 °F 29.92 in West 2.1 mph 4.6 mph 66 % 0.00 in
00:05 70.0 °F 58.1 °F 29.92 in WNW 2.6 mph 6.9 mph 66 % 0.00 in
00:10 69.9 °F 58.0 °F 29.92 in NW 4.5 mph 7.0 mph 66 % 0.00 in
00:15 69.8 °F 57.9 °F 29.92 in SW 4.1 mph 7.0 mph 66 % 0.00 in
00:20 69.7 °F 57.8 °F 29.92 in West 3.1 mph 8.0 mph 66 % 0.00 in
00:25 69.7 °F 57.8 °F 29.92 in WNW 1.5 mph 9.2 mph 66 % 0.00 in
00:30 69.7 °F 57.8 °F 29.91 in WNW 3.6 mph 8.1 mph 66 % 0.00 in
00:35 69.7 °F 58.3 °F 29.92 in NW 1.3 mph 3.5 mph 67 % 0.00 in
00:40 69.7 °F 58.7 °F 29.91 in WSW 4.5 mph 9.2 mph 68 % 0.00 in
00:45 69.6 °F 58.6 °F 29.91 in NW 2.2 mph 6.9 mph 68 % 0.00 in
00:50 69.5 °F 58.1 °F 29.92 in West 3.5 mph 8.1 mph 67 % 0.00 in
00:55 69.5 °F 58.5 °F 29.91 in WNW 3.3 mph 5.8 mph 68 % 0.00 in
01:00 69.4 °F 58.4 °F 29.92 in WNW 4.4 mph 10.4 mph 68 % 0.00 in
01:05 69.3 °F 58.3 °F 29.91 in NW 3.7 mph 5.0 mph 68 % 0.00 in
01:10 69.3 °F 58.3 °F 29.91 in West 3.7 mph 8.1 mph 68 % 0.00 in
01:15 69.2 °F 58.2 °F 29.92 in North 5.1 mph 8.1 mph 68 % 0.00 in
01:20 69.1 °F 58.1 °F 29.91 in NW 4.0 mph 8.0 mph 68 % 0.00 in
01:25 69.1 °F 58.1 °F 29.92 in NW 2.9 mph 10.4 mph 68 % 0.00 in
01:30 69.0 °F 58.0 °F 29.91 in West 5.5 mph 11.5 mph 68 % 0.00 in
01:35 69.0 °F 58.0 °F 29.91 in WNW 2.5 mph 6.9 mph 68 % 0.00 in
01:40 68.9 °F 57.9 °F 29.91 in WNW 3.0 mph 6.9 mph 68 % 0.00 in
01:45 68.9 °F 58.3 °F 29.92 in West 0.8 mph 4.0 mph 69 % 0.00 in
01:50 68.8 °F 58.2 °F 29.92 in WNW 3.4 mph 6.9 mph 69 % 0.00 in
01:55 68.7 °F 58.1 °F 29.92 in West 1.5 mph 8.1 mph 69 % 0.00 in
02:00 68.6 °F 58.0 °F 29.92 in West 1.2 mph 3.5 mph 69 % 0.00 in
02:05 68.5 °F 57.9 °F 29.92 in WNW 5.1 mph 11.5 mph 69 % 0.00 in
02:10 68.4 °F 58.2 °F 29.92 in West 3.5 mph 9.2 mph 70 % 0.00 in
02:15 68.3 °F 57.7 °F 29.92 in West 5.3 mph 10.4 mph 69 % 0.00 in
02:20 68.3 °F 58.1 °F 29.92 in WNW 1.0 mph 3.5 mph 70 % 0.00 in
02:25 68.2 °F 58.0 °F 29.92 in West 3.6 mph 10.4 mph 70 % 0.00 in
02:30 68.1 °F 57.9 °F 29.92 in West 1.1 mph 10.4 mph 70 % 0.00 in
02:40 68.0 °F 57.8 °F 29.92 in WNW 1.4 mph 4.6 mph 70 % 0.00 in
02:46 68.0 °F 58.2 °F 29.92 in West 1.0 mph 8.0 mph 71 % 0.00 in
02:51 67.9 °F 58.1 °F 29.92 in West 2.0 mph 5.0 mph 71 % 0.00 in
02:56 67.7 °F 58.0 °F 29.92 in WSW 2.0 mph 10.0 mph 71 % 0.00 in
03:01 67.6 °F 57.9 °F 29.92 in WNW 2.0 mph 9.2 mph 71 % 0.00 in
03:06 67.6 °F 57.9 °F 29.92 in WNW 4.9 mph 10.4 mph 71 % 0.00 in
03:11 67.5 °F 57.8 °F 29.92 in WSW 4.5 mph 9.2 mph 71 % 0.00 in
03:16 67.4 °F 57.7 °F 29.92 in WNW 2.8 mph 9.2 mph 71 % 0.00 in
03:21 67.3 °F 57.2 °F 29.92 in WNW 3.0 mph 8.1 mph 70 % 0.00 in
03:26 67.3 °F 57.2 °F 29.92 in West 4.4 mph 9.2 mph 70 % 0.00 in
03:31 67.2 °F 57.1 °F 29.93 in West 4.0 mph 6.9 mph 70 % 0.00 in
03:36 67.2 °F 57.1 °F 29.93 in WSW 2.3 mph 4.6 mph 70 % 0.00 in
03:41 67.1 °F 57.0 °F 29.93 in WNW 3.7 mph 8.0 mph 70 % 0.00 in
03:46 67.1 °F 56.6 °F 29.94 in West 3.5 mph 11.5 mph 69 % 0.00 in
03:51 67.0 °F 56.9 °F 29.94 in WNW 3.5 mph 9.2 mph 70 % 0.00 in
03:56 67.0 °F 56.9 °F 29.94 in SW 3.5 mph 7.0 mph 70 % 0.00 in
04:01 66.9 °F 56.8 °F 29.94 in WNW 3.0 mph 8.1 mph 70 % 0.00 in
04:07 66.9 °F 56.8 °F 29.94 in WSW 4.7 mph 9.2 mph 70 % 0.00 in
04:12 66.8 °F 56.7 °F 29.95 in SSW 7.3 mph 12.7 mph 70 % 0.00 in
04:17 66.8 °F 56.7 °F 29.95 in WSW 1.4 mph 5.8 mph 70 % 0.00 in
04:22 66.7 °F 56.2 °F 29.95 in West 4.5 mph 9.2 mph 69 % 0.00 in
04:27 66.7 °F 56.2 °F 29.95 in NNW 3.5 mph 11.5 mph 69 % 0.00 in
04:32 66.7 °F 56.6 °F 29.95 in NW 6.6 mph 13.8 mph 70 % 0.00 in
04:37 66.6 °F 56.9 °F 29.95 in WSW 7.5 mph 10.4 mph 71 % 0.00 in
04:42 66.6 °F 57.3 °F 29.95 in NW 7.9 mph 10.4 mph 72 % 0.00 in
04:47 66.5 °F 57.6 °F 29.95 in WNW 2.4 mph 4.6 mph 73 % 0.00 in
04:52 66.3 °F 57.0 °F 29.95 in WNW 3.4 mph 10.4 mph 72 % 0.00 in
04:57 66.2 °F 56.9 °F 29.95 in NNW 7.1 mph 10.4 mph 72 % 0.00 in
05:02 66.1 °F 56.8 °F 29.96 in West 1.2 mph 3.5 mph 72 % 0.00 in
05:07 65.9 °F 56.2 °F 29.96 in NW 7.1 mph 10.4 mph 71 % 0.00 in
05:12 65.9 °F 57.0 °F 29.96 in West 1.7 mph 4.6 mph 73 % 0.00 in
05:17 65.8 °F 56.9 °F 29.96 in NW 2.5 mph 6.9 mph 73 % 0.00 in
05:22 65.7 °F 56.8 °F 29.97 in NW 3.7 mph 8.1 mph 73 % 0.00 in
05:28 65.6 °F 56.7 °F 29.96 in West 1.3 mph 3.5 mph 73 % 0.00 in
05:33 65.4 °F 56.9 °F 29.96 in SW 1.9 mph 7.0 mph 74 % 0.00 in
05:38 65.4 °F 56.5 °F 29.97 in WNW 4.3 mph 8.1 mph 73 % 0.00 in
05:43 65.3 °F 56.8 °F 29.96 in WSW 5.4 mph 8.1 mph 74 % 0.00 in
05:48 65.2 °F 56.3 °F 29.97 in West 5.3 mph 8.1 mph 73 % 0.00 in
05:53 65.3 °F 56.8 °F 29.97 in West 4.3 mph 10.4 mph 74 % 0.00 in
05:58 65.3 °F 56.8 °F 29.98 in WNW 3.4 mph 9.0 mph 74 % 0.00 in
06:03 65.3 °F 56.8 °F 29.98 in WSW 1.0 mph 5.8 mph 74 % 0.00 in
06:08 65.2 °F 56.3 °F 29.97 in SW 4.0 mph 4.0 mph 73 % 0.00 in
06:13 65.3 °F 56.4 °F 29.97 in West 4.9 mph 11.5 mph 73 % 0.00 in
06:18 65.3 °F 56.4 °F 29.98 in WNW 3.2 mph 9.2 mph 73 % 0.00 in
06:24 65.3 °F 56.4 °F 29.98 in WNW 4.4 mph 9.2 mph 73 % 0.00 in
06:29 65.3 °F 56.4 °F 29.98 in WNW 5.2 mph 8.1 mph 73 % 0.00 in
06:34 65.3 °F 56.8 °F 29.98 in WNW 5.3 mph 9.2 mph 74 % 0.00 in
06:39 65.4 °F 56.9 °F 29.98 in West 3.4 mph 6.9 mph 74 % 0.00 in
06:44 65.4 °F 56.5 °F 29.98 in WNW 4.0 mph 5.8 mph 73 % 0.00 in
06:49 65.5 °F 56.6 °F 29.99 in WNW 2.6 mph 8.1 mph 73 % 0.00 in
06:54 65.6 °F 57.1 °F 29.99 in WNW 5.5 mph 9.2 mph 74 % 0.00 in
06:59 65.6 °F 56.7 °F 29.99 in NW 5.0 mph 9.0 mph 73 % 0.00 in
07:04 65.7 °F 56.8 °F 30.00 in NE 5.0 mph 10.4 mph 73 % 0.00 in
07:09 65.8 °F 57.3 °F 30.00 in West 4.3 mph 6.9 mph 74 % 0.00 in
07:14 65.9 °F 57.4 °F 30.00 in West 2.6 mph 10.4 mph 74 % 0.00 in
07:19 66.1 °F 57.2 °F 30.00 in WNW 5.3 mph 11.5 mph 73 % 0.00 in
07:24 66.3 °F 57.4 °F 30.00 in NW 3.4 mph 15.0 mph 73 % 0.00 in
07:29 66.5 °F 57.6 °F 30.00 in NW 2.8 mph 9.2 mph 73 % 0.00 in
07:34 66.6 °F 57.3 °F 30.00 in West 2.8 mph 8.0 mph 72 % 0.00 in
07:39 66.7 °F 57.8 °F 30.00 in WNW 3.3 mph 8.1 mph 73 % 0.00 in
07:42 66.7 °F 57.8 °F 30.01 in West 0.5 mph 3.5 mph 73 % 0.00 in
07:47 66.7 °F 57.4 °F 30.01 in WSW 5.4 mph 10.4 mph 72 % 0.00 in
07:52 66.7 °F 57.4 °F 30.01 in West 2.1 mph 6.9 mph 72 % 0.00 in
07:57 66.7 °F 57.4 °F 30.01 in North 3.3 mph 8.1 mph 72 % 0.00 in
08:02 66.7 °F 57.4 °F 30.01 in NW 3.8 mph 9.2 mph 72 % 0.00 in
08:07 66.8 °F 57.5 °F 30.02 in West 6.8 mph 9.2 mph 72 % 0.00 in
08:12 66.8 °F 57.1 °F 30.02 in West 2.8 mph 3.5 mph 71 % 0.00 in
08:17 66.8 °F 57.1 °F 30.02 in WNW 3.8 mph 6.0 mph 71 % 0.00 in
08:22 66.8 °F 57.5 °F 30.02 in WNW 1.9 mph 6.9 mph 72 % 0.00 in
08:27 66.9 °F 57.2 °F 30.02 in West 5.3 mph 8.0 mph 71 % 0.00 in
08:32 67.0 °F 56.9 °F 30.02 in WNW 1.9 mph 4.6 mph 70 % 0.00 in
08:37 67.0 °F 56.9 °F 30.02 in NNW 0.3 mph 4.6 mph 70 % 0.00 in
08:43 67.1 °F 57.0 °F 30.02 in WNW 3.3 mph 5.8 mph 70 % 0.00 in
08:48 67.2 °F 57.1 °F 30.02 in NW 1.7 mph 4.6 mph 70 % 0.00 in
08:53 67.3 °F 57.2 °F 30.03 in NW 2.1 mph 6.9 mph 70 % 0.00 in
08:58 67.4 °F 57.3 °F 30.03 in West 0.7 mph 5.0 mph 70 % 0.00 in
09:03 67.6 °F 57.5 °F 30.03 in NW 0.1 mph 3.5 mph 70 % 0.00 in
09:08 67.8 °F 57.7 °F 30.02 in WNW 3.2 mph 5.8 mph 70 % 0.00 in
09:13 68.0 °F 57.0 °F 30.03 in West 0.3 mph 4.6 mph 68 % 0.00 in
09:18 68.3 °F 58.1 °F 30.03 in NE 1.0 mph 3.0 mph 70 % 0.00 in
09:23 68.5 °F 57.5 °F 30.03 in NW 2.6 mph 6.9 mph 68 % 0.00 in
09:28 68.8 °F 57.0 °F 30.03 in WNW 3.5 mph 6.9 mph 66 % 0.00 in
09:33 69.0 °F 58.0 °F 30.03 in North 1.6 mph 9.2 mph 68 % 0.00 in
09:38 69.3 °F 57.5 °F 30.03 in WNW 2.7 mph 3.5 mph 66 % 0.00 in
09:43 69.5 °F 57.6 °F 30.03 in West 0.3 mph 3.5 mph 66 % 0.00 in
09:49 69.9 °F 58.9 °F 30.04 in North 0.4 mph 2.3 mph 68 % 0.00 in
09:54 70.2 °F 58.7 °F 30.04 in NW 0.5 mph 2.3 mph 67 % 0.00 in
09:59 70.5 °F 58.6 °F 30.04 in West 1.5 mph 4.0 mph 66 % 0.00 in
10:04 70.8 °F 58.0 °F 30.04 in NNW 2.7 mph 5.8 mph 64 % 0.00 in
10:09 71.1 °F 57.4 °F 30.04 in WNW 4.3 mph 8.1 mph 62 % 0.00 in
10:19 72.1 °F 58.4 °F 30.04 in NW 1.5 mph 4.6 mph 62 % 0.00 in
10:24 72.7 °F 58.5 °F 30.04 in WNW 4.2 mph 9.2 mph 61 % 0.00 in
10:29 73.4 °F 60.0 °F 30.04 in NW 0.7 mph 6.9 mph 63 % 0.00 in
10:34 74.2 °F 59.4 °F 30.04 in WNW 2.7 mph 6.9 mph 60 % 0.00 in
10:39 74.6 °F 57.9 °F 30.04 in NW 2.2 mph 4.6 mph 56 % 0.00 in
10:44 74.7 °F 58.5 °F 30.04 in West 2.6 mph 6.0 mph 57 % 0.00 in
10:49 74.7 °F 58.5 °F 30.04 in NW 1.7 mph 5.0 mph 57 % 0.00 in
10:54 74.8 °F 58.5 °F 30.04 in WNW 4.5 mph 10.4 mph 57 % 0.00 in
10:59 74.8 °F 58.5 °F 30.04 in WNW 2.4 mph 6.9 mph 57 % 0.00 in
11:04 74.8 °F 58.1 °F 30.04 in WNW 4.7 mph 8.1 mph 56 % 0.00 in
11:09 75.2 °F 59.9 °F 30.04 in WSW 2.2 mph 6.0 mph 59 % 0.00 in
11:14 75.6 °F 59.3 °F 30.03 in NNE 3.2 mph 4.0 mph 57 % 0.00 in
11:19 75.8 °F 59.5 °F 30.04 in NW 2.5 mph 9.2 mph 57 % 0.00 in
11:24 75.8 °F 60.4 °F 30.04 in West 1.5 mph 4.0 mph 59 % 0.00 in
11:29 75.8 °F 59.0 °F 30.04 in NW 0.9 mph 3.5 mph 56 % 0.00 in
11:34 75.7 °F 59.4 °F 30.04 in NW 4.1 mph 9.2 mph 57 % 0.00 in
11:39 75.7 °F 59.4 °F 30.04 in NNW 5.4 mph 10.4 mph 57 % 0.00 in
11:44 75.7 °F 58.9 °F 30.04 in West 3.7 mph 4.6 mph 56 % 0.00 in
11:49 75.7 °F 60.4 °F 30.04 in WNW 1.3 mph 4.0 mph 59 % 0.00 in
11:54 75.8 °F 59.0 °F 30.03 in West 2.4 mph 4.6 mph 56 % 0.00 in
11:59 76.1 °F 59.3 °F 30.03 in WNW 1.4 mph 6.0 mph 56 % 0.00 in
12:04 76.4 °F 59.0 °F 30.03 in SW 2.1 mph 5.8 mph 55 % 0.00 in
12:09 76.6 °F 60.2 °F 30.03 in SSW 4.7 mph 6.9 mph 57 % 0.00 in
12:14 76.8 °F 57.8 °F 30.03 in NNW 1.9 mph 3.5 mph 52 % 0.00 in
12:19 76.9 °F 60.0 °F 30.03 in WSW 4.2 mph 10.4 mph 56 % 0.00 in
12:29 77.0 °F 59.1 °F 30.04 in WNW 4.1 mph 7.0 mph 54 % 0.00 in
12:34 76.9 °F 58.5 °F 30.04 in West 5.3 mph 5.8 mph 53 % 0.00 in
12:40 76.8 °F 59.4 °F 30.04 in WNW 4.1 mph 5.8 mph 55 % 0.00 in
12:45 76.8 °F 58.4 °F 30.04 in NW 4.5 mph 6.9 mph 53 % 0.00 in
12:50 77.3 °F 60.9 °F 30.04 in West 1.8 mph 3.5 mph 57 % 0.00 in
12:55 77.8 °F 59.8 °F 30.04 in WSW 2.5 mph 6.9 mph 54 % 0.00 in
13:00 77.9 °F 58.9 °F 30.04 in West 4.1 mph 9.2 mph 52 % 0.00 in
13:05 78.0 °F 58.4 °F 30.03 in SW 6.4 mph 10.4 mph 51 % 0.00 in
13:10 77.9 °F 58.9 °F 30.03 in WSW 1.0 mph 2.3 mph 52 % 0.00 in
13:15 77.8 °F 58.8 °F 30.03 in SW 3.5 mph 5.8 mph 52 % 0.00 in
13:20 77.6 °F 58.0 °F 30.03 in West 3.1 mph 8.1 mph 51 % 0.00 in
13:25 77.3 °F 57.8 °F 30.04 in WNW 1.8 mph 6.0 mph 51 % 0.00 in
13:30 77.1 °F 57.0 °F 30.04 in WNW 5.4 mph 9.2 mph 50 % 0.00 in
13:35 76.9 °F 58.5 °F 30.04 in WNW 3.9 mph 8.1 mph 53 % 0.00 in
13:40 76.9 °F 59.5 °F 30.04 in WSW 3.8 mph 4.6 mph 55 % 0.00 in
13:45 77.0 °F 59.6 °F 30.04 in West 3.1 mph 10.4 mph 55 % 0.00 in
13:50 77.0 °F 59.1 °F 30.04 in SSW 2.8 mph 6.9 mph 54 % 0.00 in
13:55 77.1 °F 58.6 °F 30.04 in NW 3.5 mph 6.9 mph 53 % 0.00 in
14:01 77.2 °F 58.7 °F 30.04 in West 2.9 mph 6.9 mph 53 % 0.00 in
14:11 77.8 °F 58.8 °F 30.03 in WSW 2.6 mph 8.1 mph 52 % 0.00 in
14:16 78.2 °F 60.2 °F 30.03 in WSW 2.4 mph 9.2 mph 54 % 0.00 in
14:21 78.3 °F 57.6 °F 30.03 in SSW 3.2 mph 6.9 mph 49 % 0.00 in
14:26 78.1 °F 59.0 °F 30.03 in SW 4.1 mph 6.9 mph 52 % 0.01 in
14:31 77.8 °F 58.8 °F 30.03 in WSW 3.7 mph 5.8 mph 52 % 0.01 in
14:36 77.6 °F 58.6 °F 30.02 in WSW 5.5 mph 9.2 mph 52 % 0.01 in
14:41 77.5 °F 59.0 °F 30.02 in WNW 3.5 mph 5.8 mph 53 % 0.01 in
14:46 77.4 °F 58.9 °F 30.02 in West 3.9 mph 6.9 mph 53 % 0.01 in
14:51 77.3 °F 59.9 °F 30.02 in NNW 1.1 mph 3.5 mph 55 % 0.01 in
15:01 76.8 °F 57.3 °F 30.03 in West 5.4 mph 9.0 mph 51 % 0.01 in
15:06 76.4 °F 57.5 °F 30.02 in West 3.4 mph 5.0 mph 52 % 0.01 in
15:11 76.3 °F 57.9 °F 30.02 in SW 3.1 mph 5.0 mph 53 % 0.01 in
15:16 76.1 °F 58.2 °F 30.02 in West 1.2 mph 3.0 mph 54 % 0.01 in
15:22 75.9 °F 58.1 °F 30.02 in WNW 1.5 mph 4.6 mph 54 % 0.01 in
15:27 75.8 °F 58.0 °F 30.02 in West 0.4 mph 4.6 mph 54 % 0.00 in
15:32 75.8 °F 58.5 °F 30.02 in SW 3.4 mph 5.8 mph 55 % 0.00 in
15:37 75.9 °F 58.6 °F 30.02 in SW 2.5 mph 6.9 mph 55 % 0.00 in
15:42 75.9 °F 58.6 °F 30.03 in West 1.8 mph 3.5 mph 55 % 0.00 in
15:47 75.8 °F 58.0 °F 30.02 in West 3.4 mph 4.6 mph 54 % 0.00 in
15:52 75.7 °F 57.4 °F 30.02 in West 2.7 mph 4.6 mph 53 % 0.00 in
15:57 75.6 °F 58.3 °F 30.02 in WNW 0.7 mph 3.5 mph 55 % 0.00 in
16:02 75.5 °F 58.2 °F 30.02 in WNW 3.2 mph 5.0 mph 55 % 0.00 in
16:07 75.4 °F 58.1 °F 30.02 in SW 3.6 mph 8.1 mph 55 % 0.00 in
16:12 75.3 °F 58.0 °F 30.02 in WNW 1.4 mph 3.5 mph 55 % 0.00 in
16:17 75.2 °F 58.4 °F 30.03 in WSW 3.0 mph 5.8 mph 56 % 0.00 in
16:22 75.5 °F 61.1 °F 30.03 in NNW 3.4 mph 6.9 mph 61 % 0.00 in
16:27 75.7 °F 58.4 °F 30.02 in West 3.0 mph 4.6 mph 55 % 0.00 in
16:32 75.8 °F 59.0 °F 30.03 in WNW 1.5 mph 4.6 mph 56 % 0.00 in
16:37 75.9 °F 58.6 °F 30.02 in NW 1.6 mph 4.0 mph 55 % 0.00 in
16:42 76.1 °F 59.3 °F 30.02 in WNW 2.2 mph 4.0 mph 56 % 0.00 in
16:47 76.4 °F 58.5 °F 30.03 in NW 3.1 mph 5.0 mph 54 % 0.00 in
16:52 76.7 °F 57.7 °F 30.03 in West 4.2 mph 6.0 mph 52 % 0.00 in
16:57 77.1 °F 58.6 °F 30.03 in West 0.6 mph 5.8 mph 53 % 0.00 in
17:02 77.4 °F 58.4 °F 30.03 in SW 2.3 mph 3.5 mph 52 % 0.00 in
17:06 77.4 °F 57.3 °F 30.02 in WNW 2.6 mph 4.6 mph 50 % 0.00 in
17:11 77.4 °F 58.9 °F 30.03 in West 2.4 mph 3.5 mph 53 % 0.00 in
17:16 77.4 °F 57.9 °F 30.03 in West 1.0 mph 3.5 mph 51 % 0.00 in
17:22 77.4 °F 58.9 °F 30.03 in West 1.9 mph 6.9 mph 53 % 0.00 in
17:27 77.3 °F 59.4 °F 30.03 in SW 5.5 mph 7.0 mph 54 % 0.00 in
17:32 77.0 °F 58.6 °F 30.03 in WSW 1.5 mph 4.0 mph 53 % 0.00 in
17:37 76.9 °F 58.5 °F 30.03 in SW 0.9 mph 3.5 mph 53 % 0.00 in
17:41 76.8 °F 58.9 °F 30.02 in SW 1.8 mph 6.0 mph 54 % 0.00 in
17:46 76.6 °F 58.7 °F 30.03 in WSW 2.5 mph 4.0 mph 54 % 0.00 in
17:51 76.4 °F 58.0 °F 30.03 in West 2.2 mph 6.0 mph 53 % 0.00 in
17:57 76.2 °F 59.4 °F 30.02 in SW 1.7 mph 2.3 mph 56 % 0.00 in
18:02 76.0 °F 58.7 °F 30.03 in WSW 3.4 mph 4.0 mph 55 % 0.00 in
18:07 75.8 °F 58.5 °F 30.02 in WSW 1.6 mph 4.0 mph 55 % 0.00 in
18:12 75.6 °F 58.3 °F 30.02 in WSW 1.7 mph 8.1 mph 55 % 0.00 in
18:17 75.5 °F 58.2 °F 30.03 in WNW 0.7 mph 3.5 mph 55 % 0.00 in
18:22 75.3 °F 58.5 °F 30.02 in SW 1.9 mph 3.5 mph 56 % 0.00 in
18:27 75.2 °F 58.4 °F 30.02 in WSW 2.7 mph 4.6 mph 56 % 0.00 in
18:32 75.1 °F 58.3 °F 30.02 in SW 2.1 mph 3.5 mph 56 % 0.00 in
18:37 75.0 °F 58.7 °F 30.03 in SW 2.3 mph 4.6 mph 57 % 0.00 in
18:42 74.8 °F 58.5 °F 30.03 in WSW 1.8 mph 3.5 mph 57 % 0.00 in
18:47 74.8 °F 59.0 °F 30.03 in SW 2.3 mph 3.5 mph 58 % 0.00 in
18:52 74.6 °F 58.8 °F 30.02 in West 0.1 mph 2.3 mph 58 % 0.00 in
18:57 74.5 °F 58.8 °F 30.03 in West 0.2 mph 2.3 mph 58 % 0.00 in
19:02 74.4 °F 58.7 °F 30.03 in WSW 0.4 mph 2.3 mph 58 % 0.00 in
19:07 74.3 °F 58.6 °F 30.03 in WSW 1.7 mph 2.3 mph 58 % 0.00 in
19:12 74.2 °F 58.9 °F 30.03 in Calm     59 % 0.00 in
19:17 74.0 °F 58.8 °F 30.03 in WSW 0.3 mph 1.2 mph 59 % 0.00 in
19:22 73.9 °F 59.1 °F 30.03 in Calm   3.0 mph 60 % 0.00 in
19:27 73.7 °F 58.9 °F 30.03 in WSW 1.8 mph 3.5 mph 60 % 0.00 in
19:32 73.5 °F 58.8 °F 30.03 in Calm     60 % 0.00 in
19:37 73.4 °F 59.6 °F 30.03 in Calm     62 % 0.00 in
19:42 73.2 °F 59.8 °F 30.04 in WSW 0.1 mph 1.2 mph 63 % 0.00 in
19:48 73.0 °F 59.7 °F 30.04 in WSW 0.1 mph 1.2 mph 63 % 0.00 in
19:53 72.7 °F 59.4 °F 30.04 in Calm   1.2 mph 63 % 0.00 in
19:58 72.5 °F 59.6 °F 30.04 in WSW 0.5 mph 1.0 mph 64 % 0.00 in
20:08 72.0 °F 59.6 °F 30.04 in Calm     65 % 0.00 in
20:13 71.8 °F 59.4 °F 30.04 in Calm     65 % 0.00 in
20:18 71.6 °F 59.6 °F 30.04 in Calm     66 % 0.00 in
20:23 71.3 °F 59.4 °F 30.04 in Calm     66 % 0.00 in
20:33 70.9 °F 59.4 °F 30.04 in Calm     67 % 0.00 in
20:38 70.7 °F 59.2 °F 30.04 in Calm     67 % 0.00 in
20:43 70.5 °F 59.0 °F 30.04 in Calm     67 % 0.00 in
20:48 70.4 °F 58.9 °F 30.05 in Calm     67 % 0.00 in
20:53 70.2 °F 59.6 °F 30.05 in Calm     69 % 0.00 in
20:58 69.9 °F 59.3 °F 30.04 in Calm     69 % 0.00 in
21:03 69.8 °F 59.6 °F 30.04 in Calm     70 % 0.00 in
21:09 69.5 °F 59.3 °F 30.05 in Calm     70 % 0.00 in
21:14 69.3 °F 59.1 °F 30.05 in Calm     70 % 0.00 in
21:19 69.0 °F 58.8 °F 30.05 in Calm     70 % 0.00 in
21:24 68.8 °F 58.6 °F 30.05 in Calm     70 % 0.00 in
21:29 68.6 °F 58.8 °F 30.05 in Calm     71 % 0.00 in
21:34 68.4 °F 58.6 °F 30.05 in Calm     71 % 0.00 in
21:39 68.2 °F 58.4 °F 30.05 in Calm     71 % 0.00 in
21:44 68.0 °F 58.2 °F 30.05 in WSW 0.5 mph 3.5 mph 71 % 0.00 in
21:49 67.8 °F 58.1 °F 30.05 in Calm     71 % 0.00 in
21:54 67.7 °F 58.0 °F 30.05 in WSW 0.3 mph 1.2 mph 71 % 0.00 in
21:59 67.5 °F 57.8 °F 30.06 in Calm   1.2 mph 71 % 0.00 in
22:04 67.4 °F 58.1 °F 30.05 in Calm   1.2 mph 72 % 0.00 in
22:09 67.2 °F 58.2 °F 30.05 in Calm   1.2 mph 73 % 0.00 in
22:14 67.1 °F 58.2 °F 30.06 in Calm     73 % 0.00 in
22:19 67.0 °F 58.1 °F 30.06 in Calm     73 % 0.00 in
22:24 66.9 °F 58.0 °F 30.06 in Calm   1.0 mph 73 % 0.00 in
22:29 66.7 °F 57.8 °F 30.06 in Calm     73 % 0.00 in
22:34 66.6 °F 57.7 °F 30.06 in Calm     73 % 0.00 in
22:39 66.5 °F 57.6 °F 30.06 in Calm     73 % 0.00 in
22:44 66.4 °F 57.5 °F 30.07 in Calm     73 % 0.00 in
22:49 66.3 °F 57.4 °F 30.06 in Calm     73 % 0.00 in
22:54 66.2 °F 57.7 °F 30.06 in Calm     74 % 0.00 in
22:59 66.1 °F 57.6 °F 30.06 in Calm     74 % 0.00 in
23:09 65.9 °F 57.7 °F 30.06 in Calm     75 % 0.00 in
23:15 65.8 °F 57.7 °F 30.06 in West 0.9 mph 3.5 mph 75 % 0.00 in
23:20 65.6 °F 57.5 °F 30.06 in Calm   1.2 mph 75 % 0.00 in
23:23 65.6 °F 57.5 °F 30.06 in SSW 0.1 mph 3.5 mph 75 % 0.00 in
23:28 65.5 °F 57.4 °F 30.06 in Calm     75 % 0.00 in
23:33 65.4 °F 57.3 °F 30.06 in Calm     75 % 0.00 in
23:38 65.3 °F 57.2 °F 30.07 in Calm     75 % 0.00 in
23:43 65.3 °F 57.2 °F 30.07 in Calm     75 % 0.00 in
23:48 65.2 °F 57.1 °F 30.07 in Calm     75 % 0.00 in
23:53 65.1 °F 57.3 °F 30.07 in Calm     76 % 0.00 in
23:58 65.1 °F 57.3 °F 30.07 in SSW 0.5 mph 2.3 mph 76 % 0.00 in
Crab Meadow Weather
Compliments of Weather Underground - 3 mb

Script developed by  Jim McMurry - jmcmurry@mwt.net Adapted for the template by  Wim van der Kuil - Leuven-Template.eu

Astronomy: Water covers 71% of Earth.